Time;durP1;ratioP1;P1;durP2;ratioP2;P2;SDS_P1;SDS_P2;PMS_P1;PMS_P2;Temp;Humidity;BMP_temperature;BMP_pressure;BME280_temperature;BME280_humidity;BME280_pressure;Samples;Min_cycle;Max_cycle;Signal;HPM_P1;HPM_P2
2023/12/22 00:01:25;;;;;;;23.27;3.08;;;;;;;;;;5132391;27;20114;-82
2023/12/22 00:04:10;;;;;;;13.80;2.97;;;;;;;;;;5132491;27;20038;-83
2023/12/22 00:06:54;;;;;;;18.38;3.45;;;;;;;;;;5132377;27;20056;-84
2023/12/22 00:09:39;;;;;;;30.90;4.47;;;;;;;;;;5131644;27;20117;-84
2023/12/22 00:12:24;;;;;;;18.50;3.10;;;;;;;;;;5132550;27;20092;-85
2023/12/22 00:15:08;;;;;;;14.15;3.15;;;;;;;;;;5132339;27;20042;-86
2023/12/22 00:17:53;;;;;;;15.60;2.90;;;;;;;;;;5132338;27;20080;-86
2023/12/22 00:20:38;;;;;;;17.98;2.88;;;;;;;;;;5131832;27;20046;-85
2023/12/22 00:23:22;;;;;;;15.45;2.95;;;;;;;;;;5132379;27;20041;-86
2023/12/22 00:26:07;;;;;;;16.45;3.30;;;;;;;;;;5132490;27;20498;-86
2023/12/22 00:28:51;;;;;;;20.63;3.38;;;;;;;;;;5143724;27;20445;-86
2023/12/22 00:31:36;;;;;;;15.45;2.95;;;;;;;;;;5146142;27;20081;-86
2023/12/22 00:34:22;;;;;;;24.20;4.00;;;;;;;;;;5132163;27;20037;-85
2023/12/22 00:37:06;;;;;;;31.73;5.43;;;;;;;;;;5132369;27;20176;-85
2023/12/22 00:39:51;;;;;;;21.48;3.22;;;;;;;;;;5138007;27;20037;-85
2023/12/22 00:42:36;;;;;;;26.70;3.85;;;;;;;;;;5149421;27;20100;-86
2023/12/22 00:45:20;;;;;;;18.27;3.47;;;;;;;;;;5132205;27;20107;-86
2023/12/22 00:48:05;;;;;;;22.88;4.85;;;;;;;;;;5131949;27;20118;-85
2023/12/22 00:50:50;;;;;;;21.05;3.92;;;;;;;;;;5133631;27;20063;-86
2023/12/22 00:53:34;;;;;;;15.52;3.72;;;;;;;;;;5131476;27;20046;-82
2023/12/22 00:56:19;;;;;;;25.10;3.60;;;;;;;;;;5132075;27;20095;-85
2023/12/22 00:59:03;;;;;;;22.63;3.85;;;;;;;;;;5132113;27;20407;-85
2023/12/22 01:01:48;;;;;;;32.88;4.35;;;;;;;;;;5131399;27;20042;-85
2023/12/22 01:04:33;;;;;;;26.67;4.63;;;;;;;;;;5133796;27;20046;-84
2023/12/22 01:07:18;;;;;;;31.75;4.95;;;;;;;;;;5131047;27;20083;-84
2023/12/22 01:10:03;;;;;;;27.08;4.50;;;;;;;;;;5132071;27;20095;-85
2023/12/22 01:12:48;;;;;;;23.92;4.47;;;;;;;;;;5131476;27;20046;-85
2023/12/22 01:15:33;;;;;;;30.20;4.70;;;;;;;;;;5132548;27;20059;-85
2023/12/22 01:18:17;;;;;;;19.35;3.22;;;;;;;;;;5135707;27;20046;-85
2023/12/22 01:21:02;;;;;;;28.35;5.00;;;;;;;;;;5135356;27;20075;-86
2023/12/22 01:23:46;;;;;;;27.27;4.18;;;;;;;;;;5134925;27;20041;-85
2023/12/22 01:26:30;;;;;;;17.08;3.03;;;;;;;;;;5141015;27;20095;-84
2023/12/22 01:29:15;;;;;;;14.82;3.42;;;;;;;;;;5150971;27;20451;-85
2023/12/22 01:31:59;;;;;;;10.85;2.60;;;;;;;;;;5144821;27;20117;-85
2023/12/22 01:34:44;;;;;;;11.63;2.38;;;;;;;;;;5149192;27;20042;-84
2023/12/22 01:37:28;;;;;;;24.15;4.18;;;;;;;;;;5142057;27;20867;-86
2023/12/22 01:40:13;;;;;;;18.95;3.40;;;;;;;;;;5155723;27;20069;-85
2023/12/22 01:42:58;;;;;;;11.10;3.10;;;;;;;;;;5139739;27;20045;-85
2023/12/22 01:45:46;;;;;;;16.05;3.88;;;;;;;;;;5154968;27;20079;-86
2023/12/22 01:48:30;;;;;;;23.27;3.25;;;;;;;;;;5155676;27;20046;-85
2023/12/22 01:51:15;;;;;;;28.17;3.67;;;;;;;;;;5155702;27;20114;-87
2023/12/22 01:54:03;;;;;;;20.88;4.97;;;;;;;;;;5155264;27;20559;-85
2023/12/22 01:56:49;;;;;;;20.52;2.90;;;;;;;;;;5155083;27;20062;-85
2023/12/22 01:59:34;;;;;;;18.27;3.58;;;;;;;;;;5155344;27;20529;-84
2023/12/22 02:02:19;;;;;;;26.63;4.15;;;;;;;;;;5155382;27;20103;-84
2023/12/22 02:05:04;;;;;;;16.45;3.10;;;;;;;;;;5143137;27;20038;-84
2023/12/22 02:07:49;;;;;;;26.30;3.47;;;;;;;;;;5154588;27;20082;-84
2023/12/22 02:10:34;;;;;;;22.02;3.22;;;;;;;;;;5155353;27;20054;-84
2023/12/22 02:13:18;;;;;;;24.38;3.17;;;;;;;;;;5155283;27;20037;-85
2023/12/22 02:16:12;;;;;;;20.05;3.67;;;;;;;;;;5154589;27;20037;-84
2023/12/22 02:18:59;;;;;;;22.90;3.33;;;;;;;;;;5154651;27;20079;-85
2023/12/22 02:22:01;;;;;;;19.60;3.50;;;;;;;;;;5154923;27;20148;-83
2023/12/22 02:24:45;;;;;;;19.67;3.50;;;;;;;;;;5154630;27;20157;-83
2023/12/22 02:27:33;;;;;;;35.40;5.70;;;;;;;;;;5154976;27;20083;-85
2023/12/22 02:30:23;;;;;;;19.98;3.33;;;;;;;;;;5139246;27;20176;-84
2023/12/22 02:33:09;;;;;;;21.63;3.45;;;;;;;;;;5139701;27;20042;-85
2023/12/22 02:35:58;;;;;;;18.00;3.08;;;;;;;;;;5154180;27;20038;-84
2023/12/22 02:38:43;;;;;;;18.90;3.80;;;;;;;;;;5154632;27;20041;-84
2023/12/22 02:41:28;;;;;;;21.65;3.80;;;;;;;;;;5154765;27;20547;-84
2023/12/22 02:44:12;;;;;;;21.60;3.40;;;;;;;;;;5154199;27;20079;-85
2023/12/22 02:46:57;;;;;;;20.83;4.05;;;;;;;;;;5153885;27;20042;-85
2023/12/22 02:49:41;;;;;;;29.58;3.38;;;;;;;;;;5154511;27;20399;-84
2023/12/22 02:52:26;;;;;;;21.90;4.72;;;;;;;;;;5154312;27;20095;-84
2023/12/22 02:55:10;;;;;;;25.73;3.97;;;;;;;;;;5153702;27;20034;-83
2023/12/22 02:57:55;;;;;;;17.33;2.47;;;;;;;;;;5153928;27;20038;-85
2023/12/22 03:00:40;;;;;;;19.08;2.85;;;;;;;;;;5154199;27;20079;-85
2023/12/22 03:03:24;;;;;;;16.95;3.05;;;;;;;;;;5154285;27;20090;-85
2023/12/22 03:06:09;;;;;;;22.58;2.80;;;;;;;;;;5153749;27;20091;-83
2023/12/22 03:08:53;;;;;;;30.98;4.57;;;;;;;;;;5153257;27;20584;-82
2023/12/22 03:11:38;;;;;;;22.88;3.17;;;;;;;;;;5154179;27;20045;-84
2023/12/22 03:14:23;;;;;;;18.05;3.53;;;;;;;;;;5153927;27;20100;-84
2023/12/22 03:17:08;;;;;;;17.40;3.28;;;;;;;;;;5153565;27;20159;-84
2023/12/22 03:19:52;;;;;;;7.38;1.77;;;;;;;;;;5153974;27;20394;-83
2023/12/22 03:22:37;;;;;;;15.30;2.40;;;;;;;;;;5153768;27;20037;-83
2023/12/22 03:25:22;;;;;;;18.38;2.78;;;;;;;;;;5153841;27;20079;-84
2023/12/22 03:28:07;;;;;;;12.95;2.40;;;;;;;;;;5153076;27;20073;-83
2023/12/22 03:30:51;;;;;;;18.98;2.60;;;;;;;;;;5153779;27;20046;-85
2023/12/22 03:33:36;;;;;;;12.25;2.85;;;;;;;;;;5153796;27;20485;-84
2023/12/22 03:36:20;;;;;;;19.60;3.78;;;;;;;;;;5153639;27;20538;-84
2023/12/22 03:39:05;;;;;;;13.27;2.55;;;;;;;;;;5152703;27;20037;-84
2023/12/22 03:41:49;;;;;;;15.60;2.45;;;;;;;;;;5153359;27;20080;-84
2023/12/22 03:44:34;;;;;;;21.40;3.05;;;;;;;;;;5153529;27;20505;-84
2023/12/22 03:47:18;;;;;;;18.98;3.38;;;;;;;;;;5152823;27;20095;-84
2023/12/22 03:50:03;;;;;;;29.60;3.78;;;;;;;;;;5152864;27;20045;-83
2023/12/22 03:52:47;;;;;;;22.02;2.95;;;;;;;;;;5141591;27;20078;-84
2023/12/22 03:55:32;;;;;;;21.67;3.80;;;;;;;;;;5153127;27;20058;-84
2023/12/22 03:58:17;;;;;;;22.15;3.97;;;;;;;;;;5152852;27;20126;-84
2023/12/22 04:01:01;;;;;;;18.80;3.17;;;;;;;;;;5138632;27;20037;-84
2023/12/22 04:03:46;;;;;;;16.45;3.88;;;;;;;;;;5153125;27;20113;-84
2023/12/22 04:06:30;;;;;;;17.63;3.42;;;;;;;;;;5153239;27;20080;-84
2023/12/22 04:09:15;;;;;;;32.88;4.22;;;;;;;;;;5152573;27;20543;-84
2023/12/22 04:11:59;;;;;;;19.05;4.75;;;;;;;;;;5153224;27;20037;-83
2023/12/22 04:14:44;;;;;;;23.08;4.13;;;;;;;;;;5153186;27;20164;-84
2023/12/22 04:17:29;;;;;;;29.02;4.35;;;;;;;;;;5152905;27;20521;-84
2023/12/22 04:20:13;;;;;;;17.58;4.00;;;;;;;;;;5152592;27;20551;-83
2023/12/22 04:22:58;;;;;;;23.25;4.90;;;;;;;;;;5152984;27;20069;-84
2023/12/22 04:25:42;;;;;;;25.88;5.22;;;;;;;;;;5153168;27;20038;-84
2023/12/22 04:28:27;;;;;;;29.70;4.88;;;;;;;;;;5152636;27;20061;-84
2023/12/22 04:31:11;;;;;;;35.33;3.75;;;;;;;;;;5152234;27;20037;-84
2023/12/22 04:33:56;;;;;;;28.85;4.10;;;;;;;;;;5153017;27;20399;-84
2023/12/22 04:36:40;;;;;;;27.05;3.90;;;;;;;;;;5152642;27;20119;-84
2023/12/22 04:39:25;;;;;;;31.65;4.35;;;;;;;;;;5151299;27;20041;-83
2023/12/22 04:42:10;;;;;;;21.77;2.90;;;;;;;;;;5137677;27;20531;-84
2023/12/22 04:44:54;;;;;;;24.80;3.72;;;;;;;;;;5146397;27;20389;-84
2023/12/22 04:47:39;;;;;;;20.55;3.97;;;;;;;;;;5144515;27;20118;-84
2023/12/22 04:50:23;;;;;;;19.15;3.55;;;;;;;;;;5133809;27;20895;-85
2023/12/22 04:53:08;;;;;;;11.32;2.92;;;;;;;;;;5156409;27;20050;-82
2023/12/22 04:55:53;;;;;;;26.15;4.45;;;;;;;;;;5134866;27;20060;-84
2023/12/22 04:58:37;;;;;;;18.33;3.70;;;;;;;;;;5150939;27;20059;-83
2023/12/22 05:01:22;;;;;;;20.85;3.55;;;;;;;;;;5156198;27;20087;-84
2023/12/22 05:04:06;;;;;;;20.17;3.17;;;;;;;;;;5156512;27;20061;-84
2023/12/22 05:06:51;;;;;;;19.02;4.15;;;;;;;;;;5156652;27;20073;-85
2023/12/22 05:09:35;;;;;;;25.17;3.10;;;;;;;;;;5156663;27;20132;-85
2023/12/22 05:12:20;;;;;;;20.85;3.28;;;;;;;;;;5155704;27;20136;-84
2023/12/22 05:15:05;;;;;;;21.20;4.60;;;;;;;;;;5146125;27;20065;-85
2023/12/22 05:17:50;;;;;;;16.83;2.35;;;;;;;;;;5140426;27;20037;-87
2023/12/22 05:20:35;;;;;;;18.08;2.92;;;;;;;;;;5156010;27;20045;-85
2023/12/22 05:23:19;;;;;;;18.67;4.30;;;;;;;;;;5155720;27;20398;-86
2023/12/22 05:26:04;;;;;;;23.95;3.53;;;;;;;;;;5156056;27;20091;-85
2023/12/22 05:28:51;;;;;;;17.40;2.85;;;;;;;;;;5156189;27;20084;-85
2023/12/22 05:31:37;;;;;;;21.30;3.30;;;;;;;;;;5155973;27;20107;-84
2023/12/22 05:34:21;;;;;;;28.42;4.18;;;;;;;;;;5155312;27;20089;-84
2023/12/22 05:37:06;;;;;;;17.08;3.08;;;;;;;;;;5155966;27;20029;-85
2023/12/22 05:39:50;;;;;;;21.80;3.45;;;;;;;;;;5156000;27;20394;-85
2023/12/22 05:42:35;;;;;;;22.98;3.53;;;;;;;;;;5155417;27;20061;-85
2023/12/22 05:45:19;;;;;;;30.50;3.75;;;;;;;;;;5155171;27;20037;-86
2023/12/22 05:48:04;;;;;;;15.70;2.92;;;;;;;;;;5155782;27;20082;-84
2023/12/22 05:50:49;;;;;;;15.32;3.05;;;;;;;;;;5155788;27;20073;-85
2023/12/22 05:53:34;;;;;;;22.77;4.32;;;;;;;;;;5155009;27;20037;-84
2023/12/22 05:56:21;;;;;;;21.67;4.45;;;;;;;;;;5155077;27;20073;-85
2023/12/22 05:59:06;;;;;;;18.00;3.40;;;;;;;;;;5155415;27;20034;-85
2023/12/22 06:01:54;;;;;;;25.33;3.25;;;;;;;;;;5155214;27;20531;-85
2023/12/22 06:04:38;;;;;;;14.38;3.88;;;;;;;;;;5155011;27;20155;-85
2023/12/22 06:07:23;;;;;;;25.92;3.40;;;;;;;;;;5154715;27;20542;-86
2023/12/22 06:10:09;;;;;;;15.38;2.78;;;;;;;;;;5155680;27;20147;-86
2023/12/22 06:12:54;;;;;;;22.77;4.05;;;;;;;;;;5155319;27;20483;-86
2023/12/22 06:15:38;;;;;;;24.85;3.10;;;;;;;;;;5154543;27;20053;-87
2023/12/22 06:18:23;;;;;;;21.92;3.22;;;;;;;;;;5154829;27;20037;-86
2023/12/22 06:21:08;;;;;;;17.70;3.17;;;;;;;;;;5154236;27;20030;-85
2023/12/22 06:23:52;;;;;;;17.27;3.30;;;;;;;;;;5154969;27;20034;-83
2023/12/22 06:26:37;;;;;;;22.20;2.95;;;;;;;;;;5141017;27;20517;-84
2023/12/22 06:29:22;;;;;;;23.42;3.67;;;;;;;;;;5148708;27;20078;-82
2023/12/22 06:32:07;;;;;;;19.73;3.47;;;;;;;;;;5154838;27;20077;-86
2023/12/22 06:34:52;;;;;;;20.45;2.70;;;;;;;;;;5154589;27;20147;-86
2023/12/22 06:37:36;;;;;;;15.65;2.80;;;;;;;;;;5154291;27;20049;-84
2023/12/22 06:40:21;;;;;;;15.65;3.08;;;;;;;;;;5153755;27;20498;-83
2023/12/22 06:43:06;;;;;;;14.45;2.88;;;;;;;;;;5149612;27;20042;-85
2023/12/22 06:45:54;;;;;;;18.33;2.80;;;;;;;;;;5154656;27;20069;-84
2023/12/22 06:48:39;;;;;;;14.65;3.45;;;;;;;;;;5153783;27;20041;-84
2023/12/22 06:51:30;;;;;;;16.35;2.53;;;;;;;;;;5142931;27;20042;-82
2023/12/22 06:54:14;;;;;;;19.92;3.05;;;;;;;;;;5133889;27;20038;-85
2023/12/22 06:56:59;;;;;;;29.85;3.95;;;;;;;;;;5134616;27;20038;-86
2023/12/22 06:59:43;;;;;;;21.02;3.50;;;;;;;;;;5153924;27;20073;-86
2023/12/22 07:02:28;;;;;;;17.60;3.72;;;;;;;;;;5151772;27;20085;-84
2023/12/22 07:05:12;;;;;;;16.33;2.80;;;;;;;;;;5154362;27;20041;-85
2023/12/22 07:07:57;;;;;;;17.10;2.10;;;;;;;;;;5153755;27;20049;-84
2023/12/22 07:10:41;;;;;;;16.80;2.63;;;;;;;;;;5153358;27;20081;-84
2023/12/22 07:13:26;;;;;;;13.52;2.90;;;;;;;;;;5152557;27;20046;-83
2023/12/22 07:16:12;;;;;;;9.27;3.35;;;;;;;;;;5153829;27;20526;-84
2023/12/22 07:18:57;;;;;;;21.25;3.40;;;;;;;;;;5141659;27;20091;-84
2023/12/22 07:21:42;;;;;;;20.05;2.88;;;;;;;;;;5141525;27;20098;-84
2023/12/22 07:24:27;;;;;;;10.13;2.17;;;;;;;;;;5153563;27;20075;-85
2023/12/22 07:27:11;;;;;;;14.13;2.45;;;;;;;;;;5153687;27;20087;-86
2023/12/22 07:29:56;;;;;;;14.40;2.67;;;;;;;;;;5139566;27;20114;-86
2023/12/22 07:32:40;;;;;;;18.42;2.70;;;;;;;;;;5152961;27;20049;-85
2023/12/22 07:35:25;;;;;;;29.55;3.97;;;;;;;;;;5149724;27;20037;-85
2023/12/22 07:38:09;;;;;;;19.65;3.55;;;;;;;;;;5152667;27;20489;-84
2023/12/22 07:40:54;;;;;;;16.85;2.40;;;;;;;;;;5152948;27;20057;-84
2023/12/22 07:43:38;;;;;;;21.00;3.17;;;;;;;;;;5152650;27;20053;-84
2023/12/22 07:46:23;;;;;;;17.02;3.42;;;;;;;;;;5151723;27;20079;-84
2023/12/22 07:49:08;;;;;;;14.63;2.72;;;;;;;;;;5147233;27;20037;-83
2023/12/22 07:51:53;;;;;;;15.27;2.78;;;;;;;;;;5152187;27;20683;-84
2023/12/22 07:54:37;;;;;;;21.73;2.80;;;;;;;;;;5153352;27;20568;-84
2023/12/22 07:57:22;;;;;;;12.55;2.78;;;;;;;;;;5153667;27;20164;-83
2023/12/22 08:00:09;;;;;;;12.88;2.65;;;;;;;;;;5146341;27;20042;-84
2023/12/22 08:02:53;;;;;;;14.70;3.08;;;;;;;;;;5153246;27;20676;-84
2023/12/22 08:05:38;;;;;;;19.95;3.67;;;;;;;;;;5153216;27;20095;-83
2023/12/22 08:08:22;;;;;;;16.23;3.08;;;;;;;;;;5144063;27;20539;-84
2023/12/22 08:11:08;;;;;;;19.42;3.53;;;;;;;;;;5153585;27;20107;-84
2023/12/22 08:13:53;;;;;;;21.92;3.28;;;;;;;;;;5153142;27;20054;-83
2023/12/22 08:16:38;;;;;;;19.83;3.97;;;;;;;;;;5153150;27;20038;-84
2023/12/22 08:19:22;;;;;;;20.40;3.65;;;;;;;;;;5153625;27;20041;-84
2023/12/22 08:22:07;;;;;;;13.88;2.70;;;;;;;;;;5145694;27;20030;-84
2023/12/22 08:24:51;;;;;;;20.40;3.63;;;;;;;;;;5154564;27;20528;-85
2023/12/22 08:27:36;;;;;;;21.73;3.83;;;;;;;;;;5157568;27;20038;-84
2023/12/22 08:30:21;;;;;;;17.25;3.10;;;;;;;;;;5157762;27;20399;-83
2023/12/22 08:33:05;;;;;;;17.90;3.28;;;;;;;;;;5157753;27;20038;-84
2023/12/22 08:35:50;;;;;;;12.85;3.50;;;;;;;;;;5150017;27;20041;-84
2023/12/22 08:38:34;;;;;;;11.98;3.47;;;;;;;;;;5157677;27;20037;-84
2023/12/22 08:41:19;;;;;;;19.35;3.22;;;;;;;;;;5157938;27;20406;-83
2023/12/22 08:44:05;;;;;;;12.23;2.40;;;;;;;;;;5150127;27;20114;-84
2023/12/22 08:46:49;;;;;;;18.10;2.85;;;;;;;;;;5152812;27;20559;-83
2023/12/22 08:49:34;;;;;;;13.77;2.63;;;;;;;;;;5137069;27;20042;-84
2023/12/22 08:52:19;;;;;;;9.52;1.50;;;;;;;;;;5151341;27;20065;-84
2023/12/22 08:55:05;;;;;;;10.02;2.60;;;;;;;;;;5138578;27;20082;-83
2023/12/22 08:57:49;;;;;;;11.23;1.60;;;;;;;;;;5157034;27;20096;-83
2023/12/22 09:00:34;;;;;;;6.13;1.50;;;;;;;;;;5153282;27;20074;-83
2023/12/22 09:03:19;;;;;;;7.68;1.50;;;;;;;;;;5136720;27;20038;-84
2023/12/22 09:06:03;;;;;;;5.25;1.20;;;;;;;;;;5143310;27;20138;-84
2023/12/22 09:08:48;;;;;;;9.38;1.50;;;;;;;;;;5156205;27;20394;-83
2023/12/22 09:11:33;;;;;;;8.80;1.35;;;;;;;;;;5157224;27;20034;-83
2023/12/22 09:14:18;;;;;;;6.35;1.50;;;;;;;;;;5156987;27;20029;-85
2023/12/22 09:17:02;;;;;;;6.57;1.50;;;;;;;;;;5156592;27;20116;-84
2023/12/22 09:19:47;;;;;;;7.00;1.40;;;;;;;;;;5148376;27;20118;-83
2023/12/22 09:22:32;;;;;;;6.75;1.35;;;;;;;;;;5138649;27;20057;-84
2023/12/22 09:25:16;;;;;;;6.32;2.13;;;;;;;;;;5157016;27;20504;-85
2023/12/22 09:28:01;;;;;;;9.15;3.08;;;;;;;;;;5156065;27;20135;-84
2023/12/22 09:30:45;;;;;;;7.40;1.63;;;;;;;;;;5146952;27;20041;-83
2023/12/22 09:33:29;;;;;;;7.95;1.42;;;;;;;;;;5156503;27;20118;-84
2023/12/22 09:36:14;;;;;;;11.55;1.58;;;;;;;;;;5155239;27;20394;-84
2023/12/22 09:38:59;;;;;;;7.40;1.40;;;;;;;;;;5135255;27;20114;-85
2023/12/22 09:41:46;;;;;;;8.35;1.42;;;;;;;;;;5136454;27;20079;-82
2023/12/22 09:44:33;;;;;;;12.82;1.60;;;;;;;;;;5155891;27;20038;-83
2023/12/22 09:49:48;;;;;;;12.38;2.22;;;;;;;;;;5146402;27;20156;-82
2023/12/22 09:52:34;;;;;;;11.95;1.92;;;;;;;;;;5133216;27;20046;-82
2023/12/22 09:55:19;;;;;;;11.38;1.95;;;;;;;;;;5127005;27;20610;-82
2023/12/22 09:58:05;;;;;;;11.90;2.63;;;;;;;;;;5127674;28;20043;-85
2023/12/22 10:00:50;;;;;;;11.93;1.90;;;;;;;;;;5127073;27;20037;-84
2023/12/22 10:03:35;;;;;;;9.85;2.00;;;;;;;;;;5119357;28;20070;-82
2023/12/22 10:06:20;;;;;;;9.73;2.08;;;;;;;;;;5120103;27;20054;-84
2023/12/22 10:09:07;;;;;;;5.30;1.70;;;;;;;;;;5106416;28;20522;-85
2023/12/22 10:11:53;;;;;;;7.97;1.60;;;;;;;;;;5110116;27;20067;-83
2023/12/22 10:14:38;;;;;;;21.25;2.28;;;;;;;;;;5116144;28;20111;-82
2023/12/22 10:17:23;;;;;;;16.83;1.88;;;;;;;;;;5119245;27;20078;-82
2023/12/22 10:20:08;;;;;;;7.88;2.15;;;;;;;;;;5107264;27;20420;-82
2023/12/22 10:22:53;;;;;;;9.77;1.75;;;;;;;;;;5107115;28;20047;-82
2023/12/22 10:25:40;;;;;;;8.48;1.60;;;;;;;;;;5113275;27;20084;-82
2023/12/22 10:28:27;;;;;;;12.32;2.38;;;;;;;;;;5112410;28;20108;-83
2023/12/22 10:31:12;;;;;;;11.65;2.85;;;;;;;;;;5115754;27;20033;-83
2023/12/22 10:33:56;;;;;;;11.23;2.28;;;;;;;;;;5118556;27;20505;-84
2023/12/22 10:36:41;;;;;;;15.15;2.40;;;;;;;;;;5112434;28;20093;-82
2023/12/22 10:39:29;;;;;;;11.90;2.17;;;;;;;;;;5123382;27;20488;-82
2023/12/22 10:42:14;;;;;;;9.18;2.10;;;;;;;;;;5123777;28;20060;-83
2023/12/22 10:45:00;;;;;;;11.63;1.98;;;;;;;;;;5132095;27;20079;-83
2023/12/22 10:47:45;;;;;;;11.38;2.30;;;;;;;;;;5114579;27;20097;-83
2023/12/22 10:50:30;;;;;;;11.10;2.05;;;;;;;;;;5111487;27;20147;-83
2023/12/22 10:53:15;;;;;;;11.85;3.17;;;;;;;;;;5125441;27;20115;-83
2023/12/22 10:56:00;;;;;;;9.38;2.50;;;;;;;;;;5123546;27;20034;-83
2023/12/22 10:58:45;;;;;;;15.75;3.40;;;;;;;;;;5123515;27;20046;-86
2023/12/22 11:01:31;;;;;;;17.15;2.00;;;;;;;;;;5101913;28;20031;-83
2023/12/22 11:04:19;;;;;;;14.18;2.55;;;;;;;;;;5109384;27;20046;-81
2023/12/22 11:07:04;;;;;;;14.77;3.03;;;;;;;;;;5111380;28;20489;-82
2023/12/22 11:09:51;;;;;;;14.30;2.05;;;;;;;;;;5112183;27;20041;-83
2023/12/22 11:12:37;;;;;;;13.00;2.10;;;;;;;;;;5111191;27;20043;-83
2023/12/22 11:15:22;;;;;;;18.95;2.70;;;;;;;;;;5111454;28;20096;-83
2023/12/22 11:18:08;;;;;;;16.60;2.67;;;;;;;;;;5097290;28;20437;-84
2023/12/22 11:20:53;;;;;;;13.55;2.22;;;;;;;;;;5110814;28;20461;-84
2023/12/22 11:23:39;;;;;;;19.88;4.15;;;;;;;;;;5096958;27;20061;-84
2023/12/22 11:26:24;;;;;;;10.32;3.35;;;;;;;;;;5096256;28;20039;-83
2023/12/22 11:29:10;;;;;;;11.30;2.35;;;;;;;;;;5098689;28;20043;-83
2023/12/22 11:31:58;;;;;;;19.63;2.88;;;;;;;;;;5104706;27;20511;-82
2023/12/22 11:34:47;;;;;;;17.38;2.20;;;;;;;;;;5116745;27;20077;-83
2023/12/22 11:37:33;;;;;;;13.90;2.22;;;;;;;;;;5100126;27;20541;-83
2023/12/22 11:40:17;;;;;;;18.50;3.17;;;;;;;;;;5096508;28;20084;-82
2023/12/22 11:43:02;;;;;;;18.00;2.97;;;;;;;;;;5112580;28;20124;-83
2023/12/22 11:45:49;;;;;;;14.43;2.15;;;;;;;;;;5098278;27;20042;-83
2023/12/22 11:48:34;;;;;;;13.68;2.17;;;;;;;;;;5099534;28;20483;-83
2023/12/22 11:51:19;;;;;;;19.77;4.32;;;;;;;;;;5099668;27;20138;-83
2023/12/22 11:54:04;;;;;;;13.73;2.80;;;;;;;;;;5097125;28;20067;-83
2023/12/22 11:56:49;;;;;;;13.85;2.50;;;;;;;;;;5105287;28;20521;-83
2023/12/22 11:59:34;;;;;;;15.52;2.60;;;;;;;;;;5099806;28;20043;-85
2023/12/22 12:02:18;;;;;;;11.82;2.83;;;;;;;;;;5109120;28;20046;-83
2023/12/22 12:05:03;;;;;;;23.48;3.22;;;;;;;;;;5110161;28;20399;-85
2023/12/22 12:07:49;;;;;;;13.10;2.08;;;;;;;;;;5105877;28;20131;-83
2023/12/22 12:10:33;;;;;;;10.13;2.10;;;;;;;;;;5106983;28;20487;-84
2023/12/22 12:13:22;;;;;;;15.25;2.38;;;;;;;;;;5096594;28;20074;-84
2023/12/22 12:16:07;;;;;;;12.27;2.20;;;;;;;;;;5102319;28;20050;-83
2023/12/22 12:18:52;;;;;;;17.67;2.42;;;;;;;;;;5093671;27;20047;-85
2023/12/22 12:21:37;;;;;;;18.05;3.50;;;;;;;;;;5112673;28;20047;-82
2023/12/22 12:24:22;;;;;;;11.68;2.28;;;;;;;;;;5108514;28;20514;-83
2023/12/22 12:27:08;;;;;;;17.80;2.40;;;;;;;;;;5103577;28;20034;-83
2023/12/22 12:29:53;;;;;;;12.52;3.17;;;;;;;;;;5102757;28;20154;-84
2023/12/22 12:32:37;;;;;;;17.48;2.63;;;;;;;;;;5098099;28;20410;-83
2023/12/22 12:35:24;;;;;;;25.30;4.43;;;;;;;;;;5097784;28;20094;-83
2023/12/22 12:38:08;;;;;;;17.02;3.03;;;;;;;;;;5106486;28;20119;-83
2023/12/22 12:40:53;;;;;;;15.00;2.50;;;;;;;;;;5102692;28;20503;-84
2023/12/22 12:43:42;;;;;;;11.50;2.38;;;;;;;;;;5093682;27;20057;-84
2023/12/22 12:46:36;;;;;;;14.90;2.53;;;;;;;;;;5103185;27;20400;-84
2023/12/22 12:49:21;;;;;;;17.90;3.00;;;;;;;;;;5097114;28;20070;-84
2023/12/22 12:52:06;;;;;;;16.70;2.45;;;;;;;;;;5097369;28;20541;-83
2023/12/22 12:54:50;;;;;;;11.77;2.20;;;;;;;;;;5091047;28;20081;-83
2023/12/22 12:57:35;;;;;;;16.45;2.30;;;;;;;;;;5096399;28;20157;-83
2023/12/22 13:00:30;;;;;;;15.15;2.55;;;;;;;;;;5090973;28;20042;-84
2023/12/22 13:03:15;;;;;;;12.77;2.05;;;;;;;;;;5103385;27;20434;-84
2023/12/22 13:06:06;;;;;;;11.27;2.28;;;;;;;;;;5091582;28;20065;-83
2023/12/22 13:08:52;;;;;;;15.77;1.95;;;;;;;;;;5094997;28;20050;-83
2023/12/22 13:11:37;;;;;;;8.73;1.80;;;;;;;;;;5098281;28;20526;-83
2023/12/22 13:14:24;;;;;;;13.45;2.35;;;;;;;;;;5094545;28;20047;-85
2023/12/22 13:17:10;;;;;;;10.70;1.85;;;;;;;;;;5098376;28;20033;-83
2023/12/22 13:19:54;;;;;;;14.00;2.55;;;;;;;;;;5097378;28;20051;-83
2023/12/22 13:22:39;;;;;;;12.85;2.15;;;;;;;;;;5095923;28;20047;-83
2023/12/22 13:25:24;;;;;;;9.48;1.50;;;;;;;;;;5094168;28;20034;-83
2023/12/22 13:28:09;;;;;;;11.38;1.85;;;;;;;;;;5094179;28;20613;-83
2023/12/22 13:30:54;;;;;;;9.85;1.75;;;;;;;;;;5094329;28;20047;-83
2023/12/22 13:33:39;;;;;;;12.18;2.22;;;;;;;;;;5099499;28;20078;-85
2023/12/22 13:36:23;;;;;;;17.20;2.20;;;;;;;;;;5089440;28;20039;-83
2023/12/22 13:39:09;;;;;;;16.20;1.88;;;;;;;;;;5109625;28;20039;-84
2023/12/22 13:41:53;;;;;;;9.80;2.22;;;;;;;;;;5111162;28;20035;-83
2023/12/22 13:44:43;;;;;;;15.48;2.15;;;;;;;;;;5096909;28;20511;-82
2023/12/22 13:47:28;;;;;;;14.88;1.85;;;;;;;;;;5099724;28;20543;-83
2023/12/22 13:50:19;;;;;;;18.73;4.05;;;;;;;;;;5091262;28;20392;-81
2023/12/22 13:53:10;;;;;;;13.02;2.20;;;;;;;;;;5092431;28;20039;-82
2023/12/22 13:56:01;;;;;;;15.50;2.45;;;;;;;;;;5091036;28;20513;-83
2023/12/22 13:58:46;;;;;;;12.38;1.83;;;;;;;;;;5098290;28;20064;-83
2023/12/22 14:01:31;;;;;;;11.73;2.70;;;;;;;;;;5099437;28;20111;-83
2023/12/22 14:04:15;;;;;;;14.25;1.90;;;;;;;;;;5096642;28;20081;-83
2023/12/22 14:07:00;;;;;;;15.45;2.15;;;;;;;;;;5102180;28;20543;-82
2023/12/22 14:09:44;;;;;;;12.40;1.92;;;;;;;;;;5103461;28;20494;-83
2023/12/22 14:12:29;;;;;;;14.48;2.60;;;;;;;;;;5107947;28;20046;-82
2023/12/22 14:15:13;;;;;;;17.08;2.50;;;;;;;;;;5099752;28;20138;-82
2023/12/22 14:17:58;;;;;;;10.55;1.77;;;;;;;;;;5098101;28;20069;-83
2023/12/22 14:20:43;;;;;;;10.57;1.73;;;;;;;;;;5108456;28;20065;-82
2023/12/22 14:23:28;;;;;;;17.70;2.38;;;;;;;;;;5094118;28;20090;-83
2023/12/22 14:26:12;;;;;;;9.55;2.03;;;;;;;;;;5090151;28;20533;-83
2023/12/22 14:28:57;;;;;;;6.90;1.60;;;;;;;;;;5096171;28;20047;-83
2023/12/22 14:31:41;;;;;;;9.60;1.85;;;;;;;;;;5089891;28;20620;-83
2023/12/22 14:34:26;;;;;;;8.18;2.03;;;;;;;;;;5101823;28;20109;-83
2023/12/22 14:37:11;;;;;;;7.20;1.20;;;;;;;;;;5100280;27;20514;-83
2023/12/22 14:39:55;;;;;;;8.57;1.48;;;;;;;;;;5114566;28;20046;-83
2023/12/22 14:42:40;;;;;;;7.15;1.20;;;;;;;;;;5120208;27;20050;-83
2023/12/22 14:45:24;;;;;;;6.15;1.35;;;;;;;;;;5116554;27;20063;-83
2023/12/22 14:48:09;;;;;;;6.15;1.17;;;;;;;;;;5114350;28;20078;-83
2023/12/22 14:50:54;;;;;;;5.68;1.13;;;;;;;;;;5100630;28;20081;-83
2023/12/22 14:53:39;;;;;;;7.13;1.15;;;;;;;;;;5113836;28;20043;-83
2023/12/22 14:56:23;;;;;;;8.48;1.50;;;;;;;;;;5114294;28;20042;-82
2023/12/22 14:59:11;;;;;;;12.55;1.65;;;;;;;;;;5114322;28;20498;-82
2023/12/22 15:01:56;;;;;;;4.78;1.55;;;;;;;;;;5113938;28;20157;-82
2023/12/22 15:04:41;;;;;;;8.38;1.20;;;;;;;;;;5113169;28;20092;-83
2023/12/22 15:07:26;;;;;;;6.07;1.10;;;;;;;;;;5113285;28;20043;-83
2023/12/22 15:10:11;;;;;;;7.32;1.17;;;;;;;;;;5114269;28;20058;-83
2023/12/22 15:12:55;;;;;;;5.80;1.30;;;;;;;;;;5113608;27;20054;-82
2023/12/22 15:15:40;;;;;;;12.80;1.60;;;;;;;;;;5110976;28;20038;-82
2023/12/22 15:18:25;;;;;;;5.97;1.20;;;;;;;;;;5111196;28;20038;-82
2023/12/22 15:21:09;;;;;;;7.50;1.30;;;;;;;;;;5108952;28;20043;-83
2023/12/22 15:23:54;;;;;;;10.65;1.38;;;;;;;;;;5108878;28;20529;-82
2023/12/22 15:26:39;;;;;;;9.43;1.70;;;;;;;;;;5092783;28;20074;-82
2023/12/22 15:29:24;;;;;;;8.80;1.30;;;;;;;;;;5104791;27;20096;-83
2023/12/22 15:32:08;;;;;;;7.22;1.20;;;;;;;;;;5100958;28;20505;-82
2023/12/22 15:34:53;;;;;;;6.28;1.23;;;;;;;;;;5100619;28;20043;-83
2023/12/22 15:37:38;;;;;;;12.18;1.85;;;;;;;;;;5104477;27;20042;-82
2023/12/22 15:40:23;;;;;;;4.10;0.82;;;;;;;;;;5101383;28;20053;-83
2023/12/22 15:43:08;;;;;;;9.20;1.30;;;;;;;;;;5101532;28;20088;-84
2023/12/22 15:45:53;;;;;;;7.35;1.98;;;;;;;;;;5102826;28;20043;-84
2023/12/22 15:48:38;;;;;;;5.45;1.10;;;;;;;;;;5101175;28;20140;-82
2023/12/22 15:51:23;;;;;;;8.70;1.10;;;;;;;;;;5091381;27;20120;-83
2023/12/22 15:54:07;;;;;;;6.00;1.50;;;;;;;;;;5099383;27;20169;-83
2023/12/22 15:56:52;;;;;;;10.15;1.75;;;;;;;;;;5092938;28;20124;-82
2023/12/22 15:59:37;;;;;;;10.93;1.60;;;;;;;;;;5091717;28;20481;-83
2023/12/22 16:02:21;;;;;;;9.25;1.50;;;;;;;;;;5093268;28;20097;-83
2023/12/22 16:05:07;;;;;;;12.73;1.98;;;;;;;;;;5106778;27;20043;-82
2023/12/22 16:07:52;;;;;;;7.32;1.75;;;;;;;;;;5094950;28;20043;-83
2023/12/22 16:10:37;;;;;;;7.75;1.15;;;;;;;;;;5108941;28;20050;-83
2023/12/22 16:13:22;;;;;;;7.90;1.60;;;;;;;;;;5093014;28;20089;-82
2023/12/22 16:16:13;;;;;;;13.32;2.10;;;;;;;;;;5096009;27;20493;-82
2023/12/22 16:18:58;;;;;;;11.85;1.63;;;;;;;;;;5111281;27;20050;-82
2023/12/22 16:21:44;;;;;;;5.90;1.38;;;;;;;;;;5104013;28;20096;-81